Royal Melbourne — WDC2865 — position and weather

sailwx.info

Track history (hours):
 
Tides and Currents Weather Stations Pressure Air Temp Water Temp Dewpoint Dewpoint Depression Visibility Wind Speed Wind Dir Waves Ship Positions

Royal Melbourne

Owner: Harley Marine Services, Inc, Seattle, WA. More information available from US FCC via Universal Licensing System and Coast Guard Vessel Documentation Center.

Last reported at 2015-Mar-29 13:06 UTC. Time now 2015-Mar-29 13:49 UTC.
Position N 38°03' W 122°16'.

Length 30 m; draft 2 m.

Type: Tug. MMSI: 366998830.

Date/timePositionNaut miles runAvg speedWind from/ knotsBaromVisibWave heightAir tempDewpointWater temp
2015-Mar-29 13:06N 38°03' W 122°16'0 0.0
2015-Mar-29 12:30N 38°03' W 122°16'0 0.0
2015-Mar-29 11:30N 38°03' W 122°16'0 0.0
2015-Mar-29 10:30N 38°03' W 122°16'0 0.0
2015-Mar-29 09:30N 38°03' W 122°16'0 0.0
2015-Mar-29 06:30N 38°03' W 122°16'0 0.0
2015-Mar-29 04:30N 38°03' W 122°16'0 0.0
2015-Mar-29 03:30N 38°03' W 122°16'0 0.0
2015-Mar-29 02:30N 38°03' W 122°16'0 0.0
2015-Mar-29 01:33N 38°03' W 122°16'5 1.0
2015-Mar-28 20:17N 38°02' W 122°09'5 6.0
2015-Mar-28 19:28N 38°04' W 122°15'6 6.5
2015-Mar-28 18:33N 38°02' W 122°22'6 6.3
2015-Mar-28 17:33N 37°56' W 122°26'3 3.2
2015-Mar-28 16:32N 37°55' W 122°22'0 0.0
2015-Mar-28 15:32N 37°55' W 122°22'0 0.0
2015-Mar-28 14:32N 37°55' W 122°22'0 0.0
2015-Mar-28 13:32N 37°55' W 122°22'0 0.0
2015-Mar-28 12:32N 37°55' W 122°22'0 0.2
2015-Mar-28 11:32N 37°55' W 122°22'0 0.0
2015-Mar-28 10:32N 37°55' W 122°22'0 0.0
2015-Mar-28 09:32N 37°55' W 122°22'0 0.0
2015-Mar-28 08:29N 37°55' W 122°22'0 0.0
2015-Mar-28 07:32N 37°55' W 122°22'0 0.0
2015-Mar-28 06:32N 37°55' W 122°22'0 0.0
2015-Mar-28 05:28N 37°55' W 122°22'0 0.0
2015-Mar-28 04:31N 37°55' W 122°22'0 0.0
2015-Mar-28 03:28N 37°55' W 122°22'0 0.0
2015-Mar-28 02:31N 37°55' W 122°22'0 0.0
2015-Mar-28 01:31N 37°55' W 122°22'0 0.0
2015-Mar-28 00:32N 37°55' W 122°22'4 3.8
2015-Mar-27 23:32N 37°57' W 122°26'9 8.6
2015-Mar-27 22:31N 38°03' W 122°18'8 0.8
2015-Mar-27 11:33N 38°02' W 122°08'6 4.9
2015-Mar-27 10:22N 38°04' W 122°15'0 0.5
2015-Mar-27 09:31N 38°03' W 122°16'0 0.0
2015-Mar-27 08:31N 38°03' W 122°16'0 0.0
2015-Mar-27 06:31N 38°03' W 122°16'0 0.0
2015-Mar-27 05:13N 38°03' W 122°16'0 0.0
2015-Mar-27 04:07N 38°03' W 122°16'0 0.0
2015-Mar-27 03:31N 38°03' W 122°16'0 0.0
2015-Mar-27 02:25N 38°03' W 122°16'0 0.0
2015-Mar-27 01:31N 38°03' W 122°16'0 0.0
2015-Mar-27 00:31N 38°03' W 122°16'0 0.0
2015-Mar-26 18:31N 38°03' W 122°16'0 0.0
2015-Mar-26 17:31N 38°03' W 122°16'0 0.0
2015-Mar-26 16:19N 38°03' W 122°16'0 0.0
2015-Mar-26 15:31N 38°03' W 122°16'0 0.0
2015-Mar-26 14:19N 38°03' W 122°16'0 0.0
2015-Mar-26 12:13N 38°03' W 122°16'0 0.0
2015-Mar-26 11:13N 38°03' W 122°16'0 0.0
2015-Mar-26 10:31N 38°03' W 122°16'0 0.0
2015-Mar-26 09:31N 38°03' W 122°16'0 0.0
2015-Mar-26 08:30N 38°03' W 122°16'0 0.4
2015-Mar-26 07:33N 38°03' W 122°16'3 2.9
2015-Mar-26 06:31N 38°03' W 122°20'4 4.5
2015-Mar-26 05:33N 38°00' W 122°24'7 7.3
2015-Mar-26 04:33N 37°53' W 122°25'8 8.1
2015-Mar-26 03:33N 37°46' W 122°21'0 0.1
2015-Mar-26 02:27N 37°46' W 122°21'0 0.1
2015-Mar-26 01:33N 37°45' W 122°20'0 0.4
2015-Mar-26 00:33N 37°45' W 122°21'4 0.4
2015-Mar-25 15:33N 37°48' W 122°17'0 0.0
2015-Mar-25 14:33N 37°48' W 122°17'0 0.0
2015-Mar-24 04:28N 37°48' W 122°17'6 6.1
2015-Mar-24 03:33N 37°51' W 122°23'4 4.3
2015-Mar-24 02:33N 37°55' W 122°22'0 0.0
2015-Mar-24 01:33N 37°55' W 122°22'0 0.0
2015-Mar-24 00:33N 37°55' W 122°22'0 0.0
2015-Mar-23 23:33N 37°55' W 122°22'0 0.0
2015-Mar-23 22:33N 37°55' W 122°22'0 0.0
2015-Mar-23 21:30N 37°55' W 122°22'0 0.0
2015-Mar-23 20:33N 37°55' W 122°22'0 0.0
2015-Mar-23 19:33N 37°55' W 122°22'1 0.8
2015-Mar-23 18:33N 37°54' W 122°22'6 5.5
2015-Mar-23 17:33N 37°49' W 122°21'3 0.1
2015-Mar-21 21:27N 37°48' W 122°17'6 6.2
2015-Mar-21 20:33N 37°48' W 122°24'0 0.0
2015-Mar-21 19:26N 37°48' W 122°24'0 0.0
2015-Mar-21 18:32N 37°48' W 122°24'0 0.0
2015-Mar-21 17:26N 37°48' W 122°24'1 1.0
2015-Mar-21 16:33N 37°48' W 122°23'5 0.1
2015-Mar-20 06:12N 37°48' W 122°17'3 4.0
2015-Mar-20 05:33N 37°48' W 122°20'2 2.0
2015-Mar-20 04:31N 37°46' W 122°21'0 0.0
2015-Mar-20 03:31N 37°46' W 122°21'0 0.3
2015-Mar-20 02:31N 37°46' W 122°21'0 0.2
2015-Mar-20 01:31N 37°46' W 122°21'0 0.1
2015-Mar-20 00:31N 37°46' W 122°21'0 0.0
2015-Mar-19 23:25N 37°46' W 122°21'0 0.1
2015-Mar-19 22:31N 37°46' W 122°21'0 0.0
2015-Mar-19 21:31N 37°46' W 122°21'0 0.1
2015-Mar-19 20:33N 37°46' W 122°21'7 7.4
2015-Mar-19 19:33N 37°53' W 122°24'2 2.5
2015-Mar-19 18:34N 37°55' W 122°22'0 0.0
2015-Mar-19 17:32N 37°55' W 122°22'0 0.0
2015-Mar-19 16:32N 37°55' W 122°22'0 0.0
2015-Mar-19 15:32N 37°55' W 122°22'0 0.0
2015-Mar-19 14:32N 37°55' W 122°22'0 0.0
2015-Mar-19 13:32N 37°55' W 122°22'  
Track history (hours):
 
Tides and Currents Weather Stations Pressure Air Temp Water Temp Dewpoint Dewpoint Depression Visibility Wind Speed Wind Dir Waves Ship Positions

Royal Melbourne

Owner: Harley Marine Services, Inc, Seattle, WA. More information available from US FCC via Universal Licensing System and Coast Guard Vessel Documentation Center.

Last reported at 2015-Mar-29 13:06 UTC. Time now 2015-Mar-29 13:49 UTC.
Position N 38°03' W 122°16'.

Length 30 m; draft 2 m.

Type: Tug. MMSI: 366998830.

Date/timePositionNaut miles runAvg speedWind from/ knotsBaromVisibWave heightAir tempDewpointWater temp
2015-Mar-29 13:06N 38°03' W 122°16'0 0.0
2015-Mar-29 12:30N 38°03' W 122°16'0 0.0
2015-Mar-29 11:30N 38°03' W 122°16'0 0.0
2015-Mar-29 10:30N 38°03' W 122°16'0 0.0
2015-Mar-29 09:30N 38°03' W 122°16'0 0.0
2015-Mar-29 06:30N 38°03' W 122°16'0 0.0
2015-Mar-29 04:30N 38°03' W 122°16'0 0.0
2015-Mar-29 03:30N 38°03' W 122°16'0 0.0
2015-Mar-29 02:30N 38°03' W 122°16'0 0.0
2015-Mar-29 01:33N 38°03' W 122°16'5 1.0
2015-Mar-28 20:17N 38°02' W 122°09'5 6.0
2015-Mar-28 19:28N 38°04' W 122°15'6 6.5
2015-Mar-28 18:33N 38°02' W 122°22'6 6.3
2015-Mar-28 17:33N 37°56' W 122°26'3 3.2
2015-Mar-28 16:32N 37°55' W 122°22'0 0.0
2015-Mar-28 15:32N 37°55' W 122°22'0 0.0
2015-Mar-28 14:32N 37°55' W 122°22'0 0.0
2015-Mar-28 13:32N 37°55' W 122°22'0 0.0
2015-Mar-28 12:32N 37°55' W 122°22'0 0.2
2015-Mar-28 11:32N 37°55' W 122°22'0 0.0
2015-Mar-28 10:32N 37°55' W 122°22'0 0.0
2015-Mar-28 09:32N 37°55' W 122°22'0 0.0
2015-Mar-28 08:29N 37°55' W 122°22'0 0.0
2015-Mar-28 07:32N 37°55' W 122°22'0 0.0
2015-Mar-28 06:32N 37°55' W 122°22'0 0.0
2015-Mar-28 05:28N 37°55' W 122°22'0 0.0
2015-Mar-28 04:31N 37°55' W 122°22'0 0.0
2015-Mar-28 03:28N 37°55' W 122°22'0 0.0
2015-Mar-28 02:31N 37°55' W 122°22'0 0.0
2015-Mar-28 01:31N 37°55' W 122°22'0 0.0
2015-Mar-28 00:32N 37°55' W 122°22'4 3.8
2015-Mar-27 23:32N 37°57' W 122°26'9 8.6
2015-Mar-27 22:31N 38°03' W 122°18'8 0.8
2015-Mar-27 11:33N 38°02' W 122°08'6 4.9
2015-Mar-27 10:22N 38°04' W 122°15'0 0.5
2015-Mar-27 09:31N 38°03' W 122°16'0 0.0
2015-Mar-27 08:31N 38°03' W 122°16'0 0.0
2015-Mar-27 06:31N 38°03' W 122°16'0 0.0
2015-Mar-27 05:13N 38°03' W 122°16'0 0.0
2015-Mar-27 04:07N 38°03' W 122°16'0 0.0
2015-Mar-27 03:31N 38°03' W 122°16'0 0.0
2015-Mar-27 02:25N 38°03' W 122°16'0 0.0
2015-Mar-27 01:31N 38°03' W 122°16'0 0.0
2015-Mar-27 00:31N 38°03' W 122°16'0 0.0
2015-Mar-26 18:31N 38°03' W 122°16'0 0.0
2015-Mar-26 17:31N 38°03' W 122°16'0 0.0
2015-Mar-26 16:19N 38°03' W 122°16'0 0.0
2015-Mar-26 15:31N 38°03' W 122°16'0 0.0
2015-Mar-26 14:19N 38°03' W 122°16'0 0.0
2015-Mar-26 12:13N 38°03' W 122°16'0 0.0
2015-Mar-26 11:13N 38°03' W 122°16'0 0.0
2015-Mar-26 10:31N 38°03' W 122°16'0 0.0
2015-Mar-26 09:31N 38°03' W 122°16'0 0.0
2015-Mar-26 08:30N 38°03' W 122°16'0 0.4
2015-Mar-26 07:33N 38°03' W 122°16'3 2.9
2015-Mar-26 06:31N 38°03' W 122°20'4 4.5
2015-Mar-26 05:33N 38°00' W 122°24'7 7.3
2015-Mar-26 04:33N 37°53' W 122°25'8 8.1
2015-Mar-26 03:33N 37°46' W 122°21'0 0.1
2015-Mar-26 02:27N 37°46' W 122°21'0 0.1
2015-Mar-26 01:33N 37°45' W 122°20'0 0.4
2015-Mar-26 00:33N 37°45' W 122°21'4 0.4
2015-Mar-25 15:33N 37°48' W 122°17'0 0.0
2015-Mar-25 14:33N 37°48' W 122°17'0 0.0
2015-Mar-24 04:28N 37°48' W 122°17'6 6.1
2015-Mar-24 03:33N 37°51' W 122°23'4 4.3
2015-Mar-24 02:33N 37°55' W 122°22'0 0.0
2015-Mar-24 01:33N 37°55' W 122°22'0 0.0
2015-Mar-24 00:33N 37°55' W 122°22'0 0.0
2015-Mar-23 23:33N 37°55' W 122°22'0 0.0
2015-Mar-23 22:33N 37°55' W 122°22'0 0.0
2015-Mar-23 21:30N 37°55' W 122°22'0 0.0
2015-Mar-23 20:33N 37°55' W 122°22'0 0.0
2015-Mar-23 19:33N 37°55' W 122°22'1 0.8
2015-Mar-23 18:33N 37°54' W 122°22'6 5.5
2015-Mar-23 17:33N 37°49' W 122°21'3 0.1
2015-Mar-21 21:27N 37°48' W 122°17'6 6.2
2015-Mar-21 20:33N 37°48' W 122°24'0 0.0
2015-Mar-21 19:26N 37°48' W 122°24'0 0.0
2015-Mar-21 18:32N 37°48' W 122°24'0 0.0
2015-Mar-21 17:26N 37°48' W 122°24'1 1.0
2015-Mar-21 16:33N 37°48' W 122°23'5 0.1
2015-Mar-20 06:12N 37°48' W 122°17'3 4.0
2015-Mar-20 05:33N 37°48' W 122°20'2 2.0
2015-Mar-20 04:31N 37°46' W 122°21'0 0.0
2015-Mar-20 03:31N 37°46' W 122°21'0 0.3
2015-Mar-20 02:31N 37°46' W 122°21'0 0.2
2015-Mar-20 01:31N 37°46' W 122°21'0 0.1
2015-Mar-20 00:31N 37°46' W 122°21'0 0.0
2015-Mar-19 23:25N 37°46' W 122°21'0 0.1
2015-Mar-19 22:31N 37°46' W 122°21'0 0.0
2015-Mar-19 21:31N 37°46' W 122°21'0 0.1
2015-Mar-19 20:33N 37°46' W 122°21'7 7.4
2015-Mar-19 19:33N 37°53' W 122°24'2 2.5
2015-Mar-19 18:34N 37°55' W 122°22'0 0.0
2015-Mar-19 17:32N 37°55' W 122°22'0 0.0
2015-Mar-19 16:32N 37°55' W 122°22'0 0.0
2015-Mar-19 15:32N 37°55' W 122°22'0 0.0
2015-Mar-19 14:32N 37°55' W 122°22'0 0.0
2015-Mar-19 13:32N 37°55' W 122°22'  

Dump ship's entire track history